Time;durP1;ratioP1;P1;durP2;ratioP2;P2;SDS_P1;SDS_P2;PMS_P1;PMS_P2;Temp;Humidity;BMP_temperature;BMP_pressure;BME280_temperature;BME280_humidity;BME280_pressure;Samples;Min_cycle;Max_cycle;Signal;HPM_P1;HPM_P2
2022/10/06 00:01:26;;;;;;;7.78;3.30;;;;;;;20.62;59.45;101293.59;5030799;28;20036;-47
2022/10/06 00:03:53;;;;;;;6.72;2.97;;;;;;;20.36;59.43;101287.09;5021080;28;20030;-49
2022/10/06 00:06:19;;;;;;;6.57;3.22;;;;;;;20.54;59.44;101300.34;5014746;28;20067;-47
2022/10/06 00:08:46;;;;;;;25.33;4.93;;;;;;;20.06;60.78;101295.03;5030610;28;20048;-48
2022/10/06 00:11:13;;;;;;;7.80;3.33;;;;;;;19.81;61.44;101288.25;5030617;28;20113;-49
2022/10/06 00:13:41;;;;;;;13.63;3.35;;;;;;;19.69;62.13;101285.69;5030739;28;20022;-46
2022/10/06 00:16:16;;;;;;;8.55;4.00;;;;;;;19.60;63.29;101278.25;5029438;28;20596;-47
2022/10/06 00:18:43;;;;;;;5.15;3.17;;;;;;;19.63;63.32;101275.84;5032160;28;20043;-49
2022/10/06 00:21:09;;;;;;;8.45;3.63;;;;;;;19.58;63.18;101266.81;5024989;28;20025;-49
2022/10/06 00:23:35;;;;;;;5.70;3.25;;;;;;;19.56;63.16;101266.25;5025285;28;20589;-49
2022/10/06 00:26:02;;;;;;;4.50;2.83;;;;;;;19.58;63.62;101272.22;5038411;28;20029;-49
2022/10/06 00:28:28;;;;;;;4.93;3.05;;;;;;;19.47;63.91;101277.53;5054122;28;20021;-48
2022/10/06 00:30:55;;;;;;;7.03;3.70;;;;;;;19.21;64.91;101273.72;5054305;28;20051;-49
2022/10/06 00:33:22;;;;;;;9.38;3.40;;;;;;;19.26;64.08;101271.06;5042933;28;20029;-50
2022/10/06 00:35:57;;;;;;;15.95;4.10;;;;;;;18.91;65.42;101276.03;5034211;28;20029;-49
2022/10/06 00:38:23;;;;;;;15.88;4.72;;;;;;;19.06;65.37;101270.00;5018831;28;20038;-47
2022/10/06 00:40:50;;;;;;;7.50;3.70;;;;;;;18.81;65.50;101268.56;5014158;28;20053;-50
2022/10/06 00:43:56;;;;;;;8.63;2.78;;;;;;;18.43;66.70;101267.47;5014428;28;20025;-49
2022/10/06 00:46:40;;;;;;;6.22;2.95;;;;;;;18.53;67.12;101266.78;4972561;28;20114;-48
2022/10/06 00:49:35;;;;;;;3.38;2.53;;;;;;;18.14;68.42;101266.72;4988102;28;20040;-46
2022/10/06 00:52:10;;;;;;;6.53;2.75;;;;;;;18.46;67.42;101266.97;5013763;28;20116;-49
2022/10/06 00:54:37;;;;;;;4.25;3.13;;;;;;;18.55;67.58;101267.38;5033474;28;20021;-46
2022/10/06 00:57:05;;;;;;;6.43;2.75;;;;;;;18.10;69.07;101271.00;5033703;28;20053;-49
2022/10/06 00:59:32;;;;;;;3.22;2.40;;;;;;;17.98;69.58;101272.94;5033066;28;20617;-48
2022/10/06 01:02:07;;;;;;;4.88;2.22;;;;;;;18.10;69.33;101275.59;5033464;28;20144;-44
2022/10/06 01:04:37;;;;;;;4.85;2.72;;;;;;;17.96;70.01;101285.94;5033268;28;20386;-47
2022/10/06 01:07:03;;;;;;;6.53;2.58;;;;;;;17.74;70.71;101279.56;5025212;28;20034;-44
2022/10/06 01:09:31;;;;;;;5.28;2.83;;;;;;;17.53;70.81;101281.84;5024860;28;20041;-45
2022/10/06 01:12:01;;;;;;;5.97;3.10;;;;;;;17.37;71.85;101288.03;5025918;28;20390;-47
2022/10/06 01:14:29;;;;;;;4.90;2.50;;;;;;;17.41;72.09;101283.78;5020138;28;20045;-43
2022/10/06 01:17:02;;;;;;;5.38;2.63;;;;;;;17.33;72.65;101295.00;5025146;28;20101;-43
2022/10/06 01:19:36;;;;;;;7.82;2.63;;;;;;;17.34;72.53;101289.34;5038396;28;20596;-45
2022/10/06 01:22:07;;;;;;;4.53;2.65;;;;;;;17.13;73.45;101296.22;5031318;28;20079;-47
2022/10/06 01:24:34;;;;;;;5.80;2.60;;;;;;;17.15;73.32;101293.25;5033355;28;20116;-46
2022/10/06 01:27:02;;;;;;;7.82;2.60;;;;;;;17.17;73.33;101293.03;5033217;28;20482;-46
2022/10/06 01:29:32;;;;;;;8.38;3.05;;;;;;;17.07;73.77;101294.47;5030688;28;20084;-47
2022/10/06 01:31:59;;;;;;;6.10;2.60;;;;;;;17.27;73.40;101296.78;5032951;28;20405;-43
2022/10/06 01:34:26;;;;;;;8.57;2.88;;;;;;;16.89;74.73;101297.31;5029455;28;20145;-44
2022/10/06 01:36:53;;;;;;;5.95;2.58;;;;;;;16.88;74.66;101298.38;5019443;28;20064;-46
2022/10/06 01:39:19;;;;;;;4.45;2.83;;;;;;;16.82;75.20;101302.84;5039392;28;20030;-48
2022/10/06 01:41:46;;;;;;;9.50;3.38;;;;;;;16.88;75.02;101298.38;5036171;28;20469;-44
2022/10/06 01:44:16;;;;;;;8.75;2.70;;;;;;;16.92;75.00;101302.22;5033293;28;20045;-45
2022/10/06 01:46:42;;;;;;;5.43;2.47;;;;;;;16.67;75.54;101305.16;5049648;28;20045;-47
2022/10/06 01:49:08;;;;;;;5.70;2.83;;;;;;;16.58;75.52;101303.84;5052736;28;20021;-47
2022/10/06 01:51:34;;;;;;;4.18;2.25;;;;;;;16.47;76.09;101293.88;5053063;28;20139;-44
2022/10/06 01:54:00;;;;;;;4.75;3.00;;;;;;;16.16;77.23;101300.38;5052750;28;20109;-44
2022/10/06 01:56:27;;;;;;;4.18;3.25;;;;;;;16.29;76.77;101300.19;5053146;28;20021;-47
2022/10/06 01:58:53;;;;;;;6.72;3.25;;;;;;;16.24;76.89;101300.88;5033918;28;20072;-46
2022/10/06 02:01:19;;;;;;;4.30;3.00;;;;;;;16.10;77.29;101310.22;5044098;28;20037;-44
2022/10/06 02:03:45;;;;;;;7.47;2.97;;;;;;;16.03;77.97;101304.94;5052728;28;20043;-45
2022/10/06 02:06:12;;;;;;;6.22;3.20;;;;;;;15.96;77.85;101309.63;5052095;28;20036;-43
2022/10/06 02:08:38;;;;;;;5.65;3.00;;;;;;;16.07;77.03;101308.84;5035098;28;20064;-46
2022/10/06 02:11:08;;;;;;;4.22;2.92;;;;;;;15.84;77.94;101311.47;5032404;28;20152;-46
2022/10/06 02:13:35;;;;;;;7.80;3.20;;;;;;;15.62;78.87;101313.00;5026364;28;20033;-47
2022/10/06 02:16:01;;;;;;;4.88;2.97;;;;;;;15.64;79.07;101314.44;5029013;28;20111;-47
2022/10/06 02:18:27;;;;;;;6.72;3.60;;;;;;;15.56;79.09;101326.34;5023609;28;20021;-46
2022/10/06 02:20:53;;;;;;;7.97;3.17;;;;;;;15.45;79.91;101327.09;5025438;28;20053;-44
2022/10/06 02:23:20;;;;;;;5.53;3.10;;;;;;;15.66;79.50;101327.72;5010269;28;20026;-44
2022/10/06 02:25:46;;;;;;;5.72;3.10;;;;;;;15.52;79.77;101327.84;5031294;28;20025;-43
2022/10/06 02:28:12;;;;;;;6.22;2.63;;;;;;;15.43;80.94;101331.88;5015536;28;20032;-44
2022/10/06 02:30:39;;;;;;;8.18;3.88;;;;;;;15.41;80.95;101335.88;5011549;28;20398;-44
2022/10/06 02:33:05;;;;;;;6.85;2.95;;;;;;;15.35;81.34;101340.28;5028964;28;20074;-43
2022/10/06 02:35:31;;;;;;;9.32;3.20;;;;;;;15.63;80.20;101339.78;5052145;28;20115;-45
2022/10/06 02:37:58;;;;;;;12.90;3.88;;;;;;;15.46;80.50;101336.00;5050807;28;20032;-49
2022/10/06 02:40:24;;;;;;;10.65;3.92;;;;;;;15.42;80.68;101337.50;5022915;28;20084;-49
2022/10/06 02:42:50;;;;;;;6.20;2.80;;;;;;;15.48;80.15;101328.50;5014270;28;20105;-49
2022/10/06 02:45:16;;;;;;;6.22;3.03;;;;;;;15.42;80.83;101341.03;5029840;28;20029;-45
2022/10/06 02:47:42;;;;;;;6.72;2.83;;;;;;;15.47;80.93;101343.88;5029309;28;20034;-42
2022/10/06 02:50:09;;;;;;;5.03;2.47;;;;;;;15.57;80.16;101338.78;5026995;28;20036;-43
2022/10/06 02:52:37;;;;;;;6.35;3.10;;;;;;;15.50;80.51;101343.44;5029365;28;20508;-43
2022/10/06 02:55:05;;;;;;;7.80;2.60;;;;;;;15.39;80.95;101346.88;5031485;28;20493;-41
2022/10/06 02:57:31;;;;;;;6.10;2.60;;;;;;;15.45;80.40;101345.16;5031317;28;20156;-42
2022/10/06 02:59:57;;;;;;;4.40;2.17;;;;;;;15.35;80.63;101348.38;5031650;28;20564;-41
2022/10/06 03:02:24;;;;;;;4.97;2.30;;;;;;;15.14;81.96;101356.91;5028483;28;20026;-41
2022/10/06 03:04:50;;;;;;;5.18;2.20;;;;;;;15.00;82.70;101357.06;5012132;28;20030;-41
2022/10/06 03:07:17;;;;;;;3.60;2.30;;;;;;;15.07;81.93;101351.59;5029040;28;20112;-43
2022/10/06 03:09:43;;;;;;;6.93;2.17;;;;;;;15.11;81.62;101355.50;5029785;28;20033;-42
2022/10/06 03:12:09;;;;;;;4.50;2.33;;;;;;;14.91;82.07;101361.06;5021834;28;20501;-42
2022/10/06 03:14:36;;;;;;;4.00;2.35;;;;;;;15.00;82.29;101365.16;5016754;28;20049;-48
2022/10/06 03:17:02;;;;;;;5.22;2.88;;;;;;;14.95;82.68;101364.97;5019505;28;20025;-47
2022/10/06 03:19:28;;;;;;;5.75;3.00;;;;;;;15.12;81.48;101367.94;5029619;28;20044;-48
2022/10/06 03:21:54;;;;;;;3.80;2.38;;;;;;;14.98;82.31;101363.69;5018951;28;20088;-43
2022/10/06 03:24:21;;;;;;;5.05;2.83;;;;;;;14.87;83.18;101367.13;5021984;28;20029;-47
2022/10/06 03:26:47;;;;;;;4.55;2.70;;;;;;;14.84;82.97;101371.09;5014476;28;20018;-44
2022/10/06 03:29:15;;;;;;;4.00;2.70;;;;;;;14.84;83.14;101372.97;5022112;28;20045;-44
2022/10/06 03:31:42;;;;;;;3.80;2.80;;;;;;;14.79;82.92;101363.66;5030114;28;20129;-46
2022/10/06 03:34:08;;;;;;;4.97;3.47;;;;;;;14.88;82.75;101372.31;5029065;28;20030;-45
2022/10/06 03:36:35;;;;;;;5.43;3.10;;;;;;;14.56;84.36;101368.03;5031086;28;20477;-46
2022/10/06 03:39:03;;;;;;;5.78;4.13;;;;;;;14.72;83.54;101368.31;5028100;28;20559;-45
2022/10/06 03:41:31;;;;;;;6.25;3.65;;;;;;;14.52;84.68;101378.41;5025164;28;20025;-43
2022/10/06 03:43:58;;;;;;;4.35;3.65;;;;;;;14.44;85.38;101374.09;5018371;28;20090;-44
2022/10/06 03:46:32;;;;;;;6.05;3.58;;;;;;;14.48;84.94;101377.19;5012066;28;20060;-42
2022/10/06 03:49:00;;;;;;;5.05;3.45;;;;;;;14.56;84.86;101368.84;5023404;28;20108;-43
2022/10/06 03:51:30;;;;;;;5.68;3.13;;;;;;;14.60;84.51;101377.31;5021227;28;20030;-43
2022/10/06 03:53:57;;;;;;;4.32;3.30;;;;;;;14.52;85.09;101381.91;5021899;28;20029;-44
2022/10/06 03:56:28;;;;;;;4.50;3.00;;;;;;;14.35;86.06;101379.97;5032947;28;20057;-43
2022/10/06 03:59:06;;;;;;;5.35;2.65;;;;;;;14.25;87.21;101383.13;5030407;28;20256;-44
2022/10/06 04:01:35;;;;;;;5.68;2.88;;;;;;;14.31;87.18;101392.19;5019583;28;20025;-43
2022/10/06 04:04:03;;;;;;;3.70;2.78;;;;;;;14.46;86.36;101387.34;5033806;28;20025;-44
2022/10/06 04:06:32;;;;;;;4.95;3.13;;;;;;;14.56;85.49;101392.28;5031937;28;20537;-42
2022/10/06 04:08:58;;;;;;;4.43;2.58;;;;;;;14.46;85.76;101390.84;5032280;28;20061;-42
2022/10/06 04:11:30;;;;;;;3.95;2.80;;;;;;;14.55;85.48;101393.28;5028566;28;20029;-42
2022/10/06 04:13:59;;;;;;;4.78;3.50;;;;;;;14.62;85.23;101399.47;5032437;28;20088;-43
2022/10/06 04:16:28;;;;;;;5.10;3.22;;;;;;;14.49;85.66;101401.22;5033231;28;20025;-44
2022/10/06 04:18:57;;;;;;;5.60;3.08;;;;;;;14.56;85.56;101403.88;5032652;28;20116;-42
2022/10/06 04:21:24;;;;;;;3.72;3.13;;;;;;;14.24;87.27;101395.75;5031540;28;20386;-43
2022/10/06 04:23:55;;;;;;;7.68;3.47;;;;;;;14.29;87.38;101405.88;5032513;28;20061;-41
2022/10/06 04:26:23;;;;;;;3.70;3.20;;;;;;;14.44;86.67;101400.22;5032304;28;20060;-43
2022/10/06 04:28:50;;;;;;;7.32;3.20;;;;;;;14.44;86.90;101401.03;5032602;28;20025;-44
2022/10/06 04:31:22;;;;;;;5.10;3.03;;;;;;;14.46;86.99;101395.41;5032323;28;20045;-44
2022/10/06 04:33:52;;;;;;;6.07;3.47;;;;;;;14.48;86.83;101409.50;5032986;28;20021;-43
2022/10/06 04:36:24;;;;;;;6.60;3.35;;;;;;;14.38;87.48;101404.59;5032336;28;20033;-42
2022/10/06 04:38:57;;;;;;;6.15;3.60;;;;;;;14.54;86.71;101408.63;5032150;28;20041;-47
2022/10/06 04:41:25;;;;;;;6.03;3.90;;;;;;;14.44;87.27;101414.50;5032782;28;20048;-43
2022/10/06 04:43:52;;;;;;;6.00;3.60;;;;;;;14.65;86.12;101412.50;5026815;28;20025;-44
2022/10/06 04:46:20;;;;;;;4.25;3.60;;;;;;;14.65;85.39;101412.50;5018744;28;20033;-43
2022/10/06 04:48:46;;;;;;;6.80;3.30;;;;;;;14.47;86.78;101419.47;5023209;28;20498;-42
2022/10/06 04:51:15;;;;;;;7.32;3.55;;;;;;;14.30;88.19;101420.16;5030471;28;20033;-43
2022/10/06 04:53:45;;;;;;;3.58;3.28;;;;;;;14.51;87.24;101415.28;5028473;28;20021;-42
2022/10/06 04:56:14;;;;;;;4.30;2.78;;;;;;;14.71;85.99;101423.25;5032474;28;20025;-43
2022/10/06 04:58:43;;;;;;;4.75;3.40;;;;;;;14.52;86.96;101427.72;5031578;28;20470;-44
2022/10/06 05:01:30;;;;;;;3.85;3.35;;;;;;;14.49;86.85;101427.31;5030691;28;20033;-43
2022/10/06 05:03:58;;;;;;;4.97;3.75;;;;;;;14.42;87.42;101421.94;5027122;28;20030;-44
2022/10/06 05:06:27;;;;;;;4.95;3.97;;;;;;;14.27;88.21;101424.13;5031007;28;20037;-44
2022/10/06 05:08:59;;;;;;;6.38;4.25;;;;;;;14.45;87.46;101423.41;5031314;28;20037;-43
2022/10/06 05:11:26;;;;;;;5.35;4.10;;;;;;;14.49;86.63;101425.47;5030341;28;20078;-43
2022/10/06 05:13:55;;;;;;;4.05;3.65;;;;;;;14.61;85.79;101419.38;5031774;28;20029;-42
2022/10/06 05:16:22;;;;;;;7.70;4.88;;;;;;;14.45;86.91;101421.53;5031961;28;20119;-43
2022/10/06 05:18:49;;;;;;;7.00;4.97;;;;;;;14.30;87.40;101423.69;5031544;28;20514;-43
2022/10/06 05:21:24;;;;;;;6.15;4.75;;;;;;;14.46;86.85;101422.34;5029736;28;20029;-43
2022/10/06 05:23:50;;;;;;;5.70;4.60;;;;;;;14.51;86.45;101419.88;5029335;28;20485;-43
2022/10/06 05:26:19;;;;;;;4.40;4.00;;;;;;;14.39;87.05;101421.56;5033286;28;20045;-43
2022/10/06 05:28:45;;;;;;;5.43;3.85;;;;;;;14.48;86.79;101423.81;5032014;28;20033;-44
2022/10/06 05:31:21;;;;;;;6.60;3.83;;;;;;;14.68;85.71;101425.53;5030855;28;20545;-44
2022/10/06 05:33:47;;;;;;;6.97;3.97;;;;;;;14.46;86.01;101425.88;5031535;28;20037;-43
2022/10/06 05:36:22;;;;;;;5.03;3.67;;;;;;;14.56;85.96;101427.28;5030072;28;20440;-44
2022/10/06 05:38:48;;;;;;;4.65;3.83;;;;;;;14.27;86.77;101421.44;5030092;28;20026;-43
2022/10/06 05:41:20;;;;;;;4.05;3.67;;;;;;;14.39;86.67;101427.78;5029324;28;20029;-43
2022/10/06 05:43:47;;;;;;;6.97;3.50;;;;;;;14.20;87.26;101413.38;5031731;28;20032;-45
2022/10/06 05:46:19;;;;;;;4.07;3.08;;;;;;;14.25;87.37;101426.19;5031437;28;20029;-43
2022/10/06 05:48:51;;;;;;;3.58;2.70;;;;;;;14.36;86.47;101417.44;5030215;28;20022;-44
2022/10/06 05:51:19;;;;;;;3.50;2.20;;;;;;;14.36;86.07;101422.81;5030611;28;20037;-46
2022/10/06 05:53:47;;;;;;;4.05;2.67;;;;;;;14.36;85.97;101422.81;5030358;28;20355;-43
2022/10/06 05:56:18;;;;;;;4.15;2.80;;;;;;;14.28;85.90;101425.78;5017323;28;20668;-44
2022/10/06 05:58:47;;;;;;;3.25;2.47;;;;;;;14.26;86.66;101423.28;5017507;28;20409;-43
2022/10/06 06:01:19;;;;;;;3.55;2.17;;;;;;;14.41;85.78;101431.06;5023531;28;20252;-46
2022/10/06 06:03:50;;;;;;;2.90;2.25;;;;;;;14.44;85.35;101425.25;5016886;28;20531;-43
2022/10/06 06:06:23;;;;;;;5.30;2.38;;;;;;;14.42;85.38;101426.50;5027274;28;20536;-43
2022/10/06 06:09:12;;;;;;;3.17;2.90;;;;;;;14.57;84.92;101424.38;5017464;28;20037;-44
2022/10/06 06:11:41;;;;;;;3.70;2.60;;;;;;;14.57;84.76;101434.31;5032461;28;20033;-43
2022/10/06 06:14:10;;;;;;;6.03;3.20;;;;;;;14.40;85.82;101436.69;5029288;28;20048;-43
2022/10/06 06:16:38;;;;;;;4.15;3.70;;;;;;;14.36;86.42;101430.06;5032091;28;20037;-43
2022/10/06 06:19:05;;;;;;;7.30;3.20;;;;;;;14.63;85.04;101439.66;5030259;28;20533;-42
2022/10/06 06:21:32;;;;;;;6.47;3.97;;;;;;;14.53;84.89;101448.22;5028474;28;20080;-42
2022/10/06 06:23:58;;;;;;;3.15;2.70;;;;;;;14.38;85.16;101444.13;5030327;28;20029;-43
2022/10/06 06:26:30;;;;;;;5.28;2.72;;;;;;;14.45;85.17;101443.06;5027543;28;20049;-44
2022/10/06 06:29:05;;;;;;;2.92;2.17;;;;;;;14.49;84.64;101448.88;5026417;28;20390;-42
2022/10/06 06:31:34;;;;;;;4.47;2.38;;;;;;;14.56;83.77;101451.53;5030128;28;20053;-43
2022/10/06 06:34:03;;;;;;;3.60;2.13;;;;;;;14.60;83.47;101452.72;5029693;28;20147;-43
2022/10/06 06:36:39;;;;;;;4.57;2.55;;;;;;;14.55;83.88;101450.72;5030158;28;20122;-42
2022/10/06 06:39:08;;;;;;;3.03;2.30;;;;;;;14.58;84.24;101454.84;5028314;28;20037;-43
2022/10/06 06:41:37;;;;;;;2.53;2.28;;;;;;;14.68;84.02;101457.88;5030567;28;20053;-43
2022/10/06 06:44:09;;;;;;;3.47;2.70;;;;;;;14.72;84.13;101459.09;5030585;28;20030;-43
2022/10/06 06:46:37;;;;;;;3.65;3.22;;;;;;;14.63;84.42;101450.44;5030505;28;20108;-43
2022/10/06 06:49:04;;;;;;;2.50;2.30;;;;;;;14.76;83.88;101454.91;5029320;28;20026;-43
2022/10/06 06:51:36;;;;;;;4.13;1.92;;;;;;;14.58;84.04;101455.66;5030205;28;20026;-43
2022/10/06 06:54:03;;;;;;;2.33;1.85;;;;;;;14.64;84.17;101457.47;5027600;28;20026;-44
2022/10/06 06:56:37;;;;;;;12.95;1.90;;;;;;;14.53;84.36;101455.47;5026255;28;20032;-42
2022/10/06 06:59:09;;;;;;;3.33;1.40;;;;;;;14.55;83.96;101457.94;5024783;28;20068;-44
2022/10/06 07:01:43;;;;;;;4.50;1.70;;;;;;;14.53;83.91;101452.78;5028208;28;20490;-43
2022/10/06 07:04:11;;;;;;;1.52;1.42;;;;;;;14.65;83.45;101456.44;5030483;28;20029;-43
2022/10/06 07:06:39;;;;;;;2.95;1.80;;;;;;;14.56;83.33;101460.44;5027846;28;20627;-42
2022/10/06 07:09:06;;;;;;;3.17;1.98;;;;;;;14.57;83.53;101466.66;5029688;28;20057;-44
2022/10/06 07:11:39;;;;;;;5.00;2.20;;;;;;;14.51;83.83;101462.97;5031457;28;20037;-44
2022/10/06 07:14:11;;;;;;;2.63;1.90;;;;;;;14.44;83.99;101465.66;5030023;28;20030;-43
2022/10/06 07:25:07;;;;;;;3.90;2.35;;;;;;;14.22;85.68;101465.16;5029949;28;20053;-45
2022/10/06 07:27:41;;;;;;;3.80;2.47;;;;;;;14.28;85.17;101468.88;5031455;28;20557;-44
2022/10/06 07:30:10;;;;;;;2.63;2.25;;;;;;;14.29;84.75;101456.22;5023082;28;20062;-44
2022/10/06 07:32:36;;;;;;;2.78;1.80;;;;;;;14.31;84.74;101464.91;5025491;28;20112;-42
2022/10/06 07:35:05;;;;;;;2.35;1.70;;;;;;;14.23;84.83;101466.00;5033068;28;20082;-43
2022/10/06 07:37:33;;;;;;;2.28;2.00;;;;;;;14.22;85.04;101464.34;5033764;28;20030;-44
2022/10/06 07:40:00;;;;;;;2.50;2.30;;;;;;;14.20;85.30;101461.84;5033193;28;20084;-44
2022/10/06 07:42:27;;;;;;;6.38;2.08;;;;;;;13.93;86.84;101458.44;5033321;28;20025;-44
2022/10/06 07:47:37;;;;;;;3.47;2.30;;;;;;;14.05;85.79;101452.38;5032601;28;20037;-42
2022/10/06 07:50:06;;;;;;;3.92;2.88;;;;;;;13.94;86.84;101461.97;5031922;28;20041;-42
2022/10/06 07:52:35;;;;;;;2.95;2.63;;;;;;;13.82;87.44;101453.72;5035284;28;20029;-42
2022/10/06 07:55:01;;;;;;;4.47;3.67;;;;;;;13.98;87.12;101453.25;5032649;28;20064;-43
2022/10/06 07:57:34;;;;;;;3.83;3.08;;;;;;;13.98;86.92;101455.94;5019497;28;20038;-44
2022/10/06 08:00:01;;;;;;;5.38;3.40;;;;;;;13.98;86.48;101458.63;5033539;28;20095;-45
2022/10/06 08:02:27;;;;;;;3.10;2.58;;;;;;;14.21;85.53;101458.13;5033483;28;20029;-42
2022/10/06 08:04:54;;;;;;;3.50;2.33;;;;;;;14.22;85.23;101458.97;5033772;28;20036;-43
2022/10/06 08:07:20;;;;;;;3.63;2.85;;;;;;;14.30;84.52;101455.19;5032430;28;20041;-43
2022/10/06 08:09:47;;;;;;;2.90;2.53;;;;;;;14.16;85.60;101455.25;5032281;28;20037;-45
2022/10/06 08:12:31;;;;;;;5.18;2.55;;;;;;;14.26;85.02;101460.16;5032404;28;20235;-43
2022/10/06 08:15:01;;;;;;;5.15;2.22;;;;;;;14.25;85.36;101458.50;5033301;28;20039;-44
2022/10/06 08:17:29;;;;;;;4.72;2.85;;;;;;;14.20;85.33;101461.03;5032337;28;20109;-43
2022/10/06 08:19:55;;;;;;;4.55;2.88;;;;;;;14.12;85.57;101469.34;5034425;28;20030;-42
2022/10/06 08:22:26;;;;;;;4.15;2.80;;;;;;;14.26;85.06;101462.84;5032685;28;20052;-42
2022/10/06 08:24:53;;;;;;;6.32;3.20;;;;;;;14.23;85.23;101460.59;5015040;28;20033;-42
2022/10/06 08:27:22;;;;;;;3.33;2.60;;;;;;;14.27;84.51;101468.03;5014469;28;20026;-44
2022/10/06 08:29:48;;;;;;;3.05;2.55;;;;;;;14.15;84.88;101463.53;5029095;28;20025;-43
2022/10/06 08:32:14;;;;;;;4.05;2.65;;;;;;;14.21;84.61;101463.53;5034394;28;20061;-43
2022/10/06 08:34:40;;;;;;;5.35;2.55;;;;;;;14.24;84.71;101463.06;5034434;28;20168;-43
2022/10/06 08:37:06;;;;;;;2.95;2.75;;;;;;;14.15;85.27;101464.34;5034160;28;20028;-43
2022/10/06 08:39:33;;;;;;;3.78;2.60;;;;;;;14.26;85.07;101474.44;5033708;28;20398;-43
2022/10/06 08:41:59;;;;;;;4.10;2.70;;;;;;;14.30;84.99;101464.06;5034193;28;20037;-43
2022/10/06 08:44:46;;;;;;;3.78;3.38;;;;;;;14.30;84.98;101466.78;5034064;28;20470;-44
2022/10/06 08:47:23;;;;;;;3.45;3.15;;;;;;;14.37;84.15;101467.56;5033102;28;20033;-44
2022/10/06 08:49:53;;;;;;;4.57;3.40;;;;;;;14.31;84.27;101473.81;5031316;28;20025;-43
2022/10/06 08:52:34;;;;;;;4.88;3.90;;;;;;;14.40;83.99;101472.53;5032950;28;20141;-44
2022/10/06 08:55:23;;;;;;;4.95;3.42;;;;;;;14.18;85.17;101473.88;5032074;28;20492;-44
2022/10/06 08:58:19;;;;;;;4.97;3.78;;;;;;;14.14;85.50;101478.03;5033361;28;20390;-44
2022/10/06 09:00:45;;;;;;;5.43;4.15;;;;;;;14.22;85.35;101472.41;5016248;28;20116;-43
2022/10/06 09:03:22;;;;;;;5.03;4.35;;;;;;;14.18;85.47;101468.50;5032336;28;20022;-45
2022/10/06 09:05:56;;;;;;;4.60;4.03;;;;;;;14.24;84.91;101478.41;5014431;28;20033;-42
2022/10/06 09:08:40;;;;;;;4.68;4.07;;;;;;;14.16;85.11;101482.19;5014827;28;20026;-43
2022/10/06 09:11:14;;;;;;;5.60;4.70;;;;;;;14.31;84.51;101472.97;5026267;28;20061;-50
2022/10/06 09:14:00;;;;;;;7.72;4.90;;;;;;;14.21;85.30;101478.81;5030951;28;20100;-43
2022/10/06 09:16:32;;;;;;;5.72;4.68;;;;;;;14.15;85.55;101477.00;5033126;28;20061;-43
2022/10/06 09:19:26;;;;;;;9.23;5.55;;;;;;;14.30;85.30;101484.78;5031786;28;20393;-43
2022/10/06 09:21:53;;;;;;;8.20;5.57;;;;;;;14.26;85.39;101474.44;5012866;28;20050;-43
2022/10/06 09:24:34;;;;;;;7.80;5.90;;;;;;;14.29;85.45;101477.75;5032319;28;20543;-43
2022/10/06 09:27:22;;;;;;;5.90;5.30;;;;;;;14.14;86.21;101478.84;5031717;28;20466;-43
2022/10/06 09:29:49;;;;;;;7.28;5.05;;;;;;;14.33;84.93;101485.22;5019106;28;20537;-43
2022/10/06 09:32:21;;;;;;;7.65;4.75;;;;;;;14.37;84.85;101486.41;5031519;28;20029;-43
2022/10/06 09:34:54;;;;;;;5.90;5.30;;;;;;;14.39;84.99;101489.72;5030844;28;20030;-43
2022/10/06 09:37:21;;;;;;;5.40;4.90;;;;;;;14.16;85.54;101492.94;5031437;28;20092;-44
2022/10/06 09:39:49;;;;;;;6.55;5.10;;;;;;;14.32;85.17;101491.59;5031706;28;20478;-46
2022/10/06 09:42:37;;;;;;;8.18;5.55;;;;;;;14.29;85.34;101485.84;5029525;28;20029;-44
2022/10/06 09:45:24;;;;;;;6.43;5.15;;;;;;;14.44;84.69;101494.47;5031173;28;20038;-45
2022/10/06 09:47:50;;;;;;;5.30;4.47;;;;;;;14.51;84.20;101487.22;5031263;28;20034;-43
2022/10/06 09:50:24;;;;;;;5.43;4.18;;;;;;;14.44;84.21;101487.22;5030362;28;20100;-43
2022/10/06 09:52:58;;;;;;;5.82;5.10;;;;;;;14.51;83.79;101490.72;5031485;28;20037;-43
2022/10/06 09:55:38;;;;;;;6.93;4.75;;;;;;;14.52;83.77;101486.16;5029065;28;20033;-44
2022/10/06 09:58:33;;;;;;;5.18;4.22;;;;;;;14.35;84.35;101485.81;5027950;28;20493;-44
2022/10/06 10:01:08;;;;;;;6.68;5.15;;;;;;;14.22;85.26;101486.72;5019366;28;20041;-42
2022/10/06 10:03:53;;;;;;;5.72;5.03;;;;;;;14.07;85.88;101488.84;5031323;28;20033;-44
2022/10/06 10:06:45;;;;;;;6.57;4.15;;;;;;;14.18;86.03;101484.66;5031025;28;20037;-43
2022/10/06 10:09:20;;;;;;;5.97;4.30;;;;;;;14.20;85.74;101487.94;5027944;28;20076;-43
2022/10/06 10:14:55;;;;;;;10.65;5.43;;;;;;;14.17;86.00;101480.31;5030785;28;20025;-43
2022/10/06 10:17:42;;;;;;;5.88;4.80;;;;;;;14.26;85.53;101487.09;5032020;28;20095;-45
2022/10/06 10:20:28;;;;;;;6.25;5.30;;;;;;;14.22;85.93;101485.88;5028739;28;20026;-43
2022/10/06 10:23:19;;;;;;;7.38;5.25;;;;;;;14.21;86.00;101485.06;5030952;28;20571;-43
2022/10/06 10:26:26;;;;;;;6.28;5.00;;;;;;;14.24;85.72;101491.88;5022454;28;20041;-43
2022/10/06 10:29:29;;;;;;;7.35;5.20;;;;;;;14.36;85.41;101487.44;4969773;28;20128;-43
2022/10/06 10:32:36;;;;;;;7.05;5.00;;;;;;;14.29;85.30;101492.06;5012657;28;20104;-43
2022/10/06 10:35:12;;;;;;;5.65;4.95;;;;;;;14.28;85.29;101490.41;4951717;28;20027;-43
2022/10/06 10:37:47;;;;;;;6.22;5.03;;;;;;;14.28;85.23;101498.50;4965213;28;20035;-43
2022/10/06 10:40:30;;;;;;;7.40;4.90;;;;;;;14.19;85.11;101489.00;4998279;28;20063;-43
2022/10/06 10:42:59;;;;;;;6.32;5.13;;;;;;;14.26;85.13;101492.47;5029810;28;20029;-44
2022/10/06 10:45:32;;;;;;;6.22;5.03;;;;;;;14.35;84.85;101490.38;5031611;28;20112;-46
2022/10/06 10:48:10;;;;;;;7.05;5.38;;;;;;;14.37;84.73;101493.66;5027181;28;20466;-43
2022/10/06 10:50:56;;;;;;;9.93;6.22;;;;;;;14.29;84.79;101492.06;5021285;28;20109;-44
2022/10/06 10:53:32;;;;;;;7.55;6.28;;;;;;;14.14;85.08;101495.00;5020426;28;20033;-40
2022/10/06 10:56:02;;;;;;;9.77;6.25;;;;;;;14.27;84.64;101496.84;5013894;28;20037;-41
2022/10/06 10:58:35;;;;;;;8.00;6.18;;;;;;;14.25;84.34;101491.66;5013826;28;20088;-41
2022/10/06 11:01:16;;;;;;;8.75;6.85;;;;;;;14.08;85.33;101486.97;5018962;28;20053;-41
2022/10/06 11:03:55;;;;;;;8.25;6.93;;;;;;;14.11;85.79;101490.06;5030011;28;20030;-41
2022/10/06 11:06:32;;;;;;;8.75;7.82;;;;;;;14.26;85.01;101487.09;5029697;28;20071;-41
2022/10/06 11:09:09;;;;;;;11.27;7.30;;;;;;;14.23;85.28;101484.84;5017934;28;20502;-41
2022/10/06 11:11:53;;;;;;;7.82;6.13;;;;;;;14.27;84.61;101484.19;5012216;28;20037;-42
2022/10/06 11:14:35;;;;;;;8.90;5.95;;;;;;;14.27;84.36;101478.00;5023989;28;20505;-41
2022/10/06 11:17:10;;;;;;;7.00;5.43;;;;;;;14.36;84.21;101482.06;5016533;28;20048;-42
2022/10/06 11:20:03;;;;;;;7.40;5.50;;;;;;;14.31;83.97;101481.06;5026195;28;20033;-41
2022/10/06 11:22:29;;;;;;;6.00;4.85;;;;;;;14.36;84.02;101484.75;5030533;28;20358;-42
2022/10/06 11:25:40;;;;;;;5.95;5.30;;;;;;;14.25;84.08;101480.06;5037851;28;20029;-41
2022/10/06 11:28:20;;;;;;;6.88;5.43;;;;;;;14.25;84.24;101480.06;5013111;28;20046;-41
2022/10/06 11:31:01;;;;;;;6.07;4.28;;;;;;;14.03;85.39;101482.22;5021249;28;20041;-41
2022/10/06 11:33:33;;;;;;;6.10;3.85;;;;;;;14.02;85.20;101479.75;5025719;28;20026;-41
2022/10/06 11:36:02;;;;;;;6.18;3.67;;;;;;;14.19;84.80;101479.03;5030364;28;20036;-41
2022/10/06 11:39:06;;;;;;;7.70;4.25;;;;;;;14.10;84.73;101488.41;5029410;28;20473;-41
2022/10/06 11:41:40;;;;;;;6.18;4.72;;;;;;;13.93;85.83;101485.34;5004843;28;20047;-41
2022/10/06 11:44:19;;;;;;;7.15;5.18;;;;;;;13.79;86.44;101481.06;5030072;28;20109;-41
2022/10/06 11:47:00;;;;;;;6.30;5.47;;;;;;;13.96;85.89;101481.41;5029873;28;20051;-40
2022/10/06 11:49:32;;;;;;;5.97;4.72;;;;;;;14.11;85.18;101481.16;5017766;28;20017;-41
2022/10/06 11:52:10;;;;;;;6.88;5.20;;;;;;;13.87;85.92;101486.19;5011597;28;20029;-40
2022/10/06 11:54:39;;;;;;;5.43;4.60;;;;;;;14.08;85.35;101493.16;5019707;28;20530;-43
2022/10/06 11:57:26;;;;;;;6.85;4.53;;;;;;;13.96;85.64;101493.00;5013247;28;20026;-42
2022/10/06 11:59:55;;;;;;;6.22;5.28;;;;;;;14.05;85.41;101499.00;5026808;28;20045;-41